Time;durP1;ratioP1;P1;durP2;ratioP2;P2;SDS_P1;SDS_P2;PMS_P1;PMS_P2;Temp;Humidity;BMP_temperature;BMP_pressure;BME280_temperature;BME280_humidity;BME280_pressure;Samples;Min_cycle;Max_cycle;Signal;HPM_P1;HPM_P2
2023/06/22 00:00:44;;;;;;;30.17;21.93;;;24.50;70.60;;;;;;5067277;28;20497;-78
2023/06/22 00:03:14;;;;;;;34.73;23.10;;;24.30;72.00;;;;;;5058442;28;20438;-77
2023/06/22 00:05:42;;;;;;;31.10;22.07;;;24.00;73.70;;;;;;5081083;28;20446;-78
2023/06/22 00:08:10;;;;;;;35.07;23.50;;;24.00;74.80;;;;;;5081052;28;20488;-77
2023/06/22 00:10:38;;;;;;;34.40;21.80;;;24.10;74.40;;;;;;5072353;28;20472;-77
2023/06/22 00:13:06;;;;;;;33.20;22.10;;;24.10;75.30;;;;;;5073667;28;20483;-79
2023/06/22 00:15:34;;;;;;;28.27;20.90;;;24.10;75.60;;;;;;5070688;28;20450;-78
2023/06/22 00:18:03;;;;;;;30.00;20.33;;;24.20;74.80;;;;;;5064782;28;20473;-78
2023/06/22 00:20:36;;;;;;;27.03;20.00;;;24.10;75.10;;;;;;5079420;28;20449;-78
2023/06/22 00:23:08;;;;;;;29.40;21.70;;;24.00;75.40;;;;;;5082097;28;20446;-78
2023/06/22 00:25:36;;;;;;;27.00;20.07;;;24.00;74.90;;;;;;5075030;28;20509;-78
2023/06/22 00:28:04;;;;;;;32.00;22.90;;;23.90;77.40;;;;;;5083693;28;20960;-78
2023/06/22 00:30:33;;;;;;;28.67;21.27;;;23.80;76.90;;;;;;5077392;28;20533;-78
2023/06/22 00:33:01;;;;;;;25.53;20.50;;;23.90;77.30;;;;;;5071399;28;20511;-77
2023/06/22 00:35:29;;;;;;;27.27;21.07;;;24.20;76.90;;;;;;5068230;28;20473;-78
2023/06/22 00:38:00;;;;;;;31.03;22.20;;;24.10;76.40;;;;;;5070393;28;20521;-78
2023/06/22 00:40:29;;;;;;;28.07;21.03;;;24.00;77.00;;;;;;5072493;28;20480;-78
2023/06/22 00:42:57;;;;;;;28.30;21.07;;;23.80;78.90;;;;;;5079014;28;20441;-78
2023/06/22 00:45:27;;;;;;;35.10;21.37;;;24.00;78.30;;;;;;5075700;28;20495;-78
2023/06/22 00:48:00;;;;;;;32.63;23.53;;;24.20;77.00;;;;;;5085033;28;20501;-78
2023/06/22 00:50:36;;;;;;;32.80;23.13;;;24.30;76.00;;;;;;5081925;28;20437;-78
2023/06/22 00:53:10;;;;;;;32.47;22.30;;;24.30;75.10;;;;;;5063518;28;21007;-78
2023/06/22 00:55:43;;;;;;;32.00;23.27;;;24.20;75.50;;;;;;5076096;28;20450;-78
2023/06/22 00:58:12;;;;;;;33.87;21.67;;;23.90;76.80;;;;;;5066627;28;20450;-79
2023/06/22 01:00:41;;;;;;;29.33;21.73;;;23.90;77.80;;;;;;5073643;28;20424;-78
2023/06/22 01:03:09;;;;;;;33.17;23.20;;;24.10;78.00;;;;;;5077879;28;20450;-78
2023/06/22 01:05:39;;;;;;;28.40;21.87;;;24.00;76.80;;;;;;5076648;28;20438;-78
2023/06/22 01:08:16;;;;;;;32.00;23.40;;;23.90;77.80;;;;;;5072211;28;20474;-79
2023/06/22 01:10:47;;;;;;;32.77;21.97;;;23.80;77.10;;;;;;5062401;28;20450;-78
2023/06/22 01:13:19;;;;;;;31.80;23.30;;;23.90;79.00;;;;;;5071842;28;20497;-78
2023/06/22 01:15:50;;;;;;;36.63;23.63;;;24.20;77.80;;;;;;5073192;28;20434;-78
2023/06/22 01:18:18;;;;;;;28.90;21.50;;;24.30;75.80;;;;;;5071711;28;20477;-79
2023/06/22 01:20:47;;;;;;;32.67;20.80;;;24.50;75.40;;;;;;5071233;28;20561;-78
2023/06/22 01:23:27;;;;;;;30.53;22.03;;;24.50;75.00;;;;;;5069297;28;20461;-78
2023/06/22 01:26:00;;;;;;;29.33;21.70;;;24.50;74.60;;;;;;5066558;28;20449;-78
2023/06/22 01:28:44;;;;;;;34.87;22.40;;;24.60;74.20;;;;;;5073528;28;20645;-78
2023/06/22 01:31:14;;;;;;;32.17;21.73;;;24.40;73.90;;;;;;5073011;28;20427;-78
2023/06/22 01:33:43;;;;;;;31.00;22.60;;;24.10;76.10;;;;;;5072834;28;20524;-78
2023/06/22 01:36:12;;;;;;;32.60;22.80;;;23.90;77.30;;;;;;5079691;28;20531;-78
2023/06/22 01:38:40;;;;;;;29.03;20.60;;;24.00;78.10;;;;;;5073520;28;20519;-78
2023/06/22 01:41:08;;;;;;;32.20;23.93;;;24.10;77.50;;;;;;5062763;28;20537;-78
2023/06/22 01:43:36;;;;;;;29.73;21.50;;;24.30;75.40;;;;;;5069454;28;20481;-78
2023/06/22 01:46:05;;;;;;;29.60;22.20;;;24.20;76.50;;;;;;5076360;28;20578;-78
2023/06/22 01:48:33;;;;;;;42.50;29.80;;;24.30;75.80;;;;;;5079781;28;20463;-78
2023/06/22 01:51:01;;;;;;;65.40;44.80;;;24.30;75.60;;;;;;5079348;28;20506;-78
2023/06/22 01:53:30;;;;;;;50.63;37.10;;;24.20;75.60;;;;;;5073317;28;20477;-79
2023/06/22 01:55:58;;;;;;;56.60;38.07;;;24.20;75.40;;;;;;5079676;28;20445;-78
2023/06/22 01:58:27;;;;;;;84.53;56.37;;;24.20;74.80;;;;;;5066281;28;20450;-78
2023/06/22 02:00:58;;;;;;;51.83;35.30;;;23.90;76.20;;;;;;5085458;28;20494;-78
2023/06/22 02:03:31;;;;;;;50.70;37.40;;;23.60;77.50;;;;;;5073364;28;20432;-78
2023/06/22 02:06:07;;;;;;;49.60;34.93;;;23.60;80.00;;;;;;5074358;28;20446;-78
2023/06/22 02:08:40;;;;;;;41.03;29.60;;;23.80;78.10;;;;;;5077603;28;20412;-78
2023/06/22 02:11:09;;;;;;;58.13;40.67;;;23.70;77.60;;;;;;5078044;28;20512;-78
2023/06/22 02:13:37;;;;;;;57.53;39.97;;;23.50;79.30;;;;;;5072326;28;20505;-79
2023/06/22 02:16:05;;;;;;;59.27;42.70;;;23.50;79.60;;;;;;5077936;28;20480;-78
2023/06/22 02:18:35;;;;;;;52.53;36.10;;;23.60;79.20;;;;;;5086010;28;20465;-79
2023/06/22 02:21:03;;;;;;;42.60;29.97;;;23.40;80.70;;;;;;5078816;28;20450;-79
2023/06/22 02:23:32;;;;;;;45.40;33.70;;;23.50;80.70;;;;;;5070855;28;20453;-79
2023/06/22 02:26:00;;;;;;;46.67;34.10;;;23.50;80.00;;;;;;5084754;28;20441;-78
2023/06/22 02:28:28;;;;;;;43.50;31.97;;;23.70;78.80;;;;;;5077116;28;20480;-78
2023/06/22 02:30:56;;;;;;;38.67;26.90;;;23.70;78.50;;;;;;5065650;28;20484;-78
2023/06/22 02:33:25;;;;;;;40.33;29.90;;;23.50;78.40;;;;;;5069076;28;20473;-78
2023/06/22 02:35:54;;;;;;;38.80;28.33;;;23.20;79.10;;;;;;5080255;28;20448;-78
2023/06/22 02:38:24;;;;;;;40.77;29.13;;;23.30;81.40;;;;;;5060596;28;20510;-78
2023/06/22 02:40:52;;;;;;;41.83;29.97;;;23.50;79.40;;;;;;5076212;28;20450;-77
2023/06/22 02:43:20;;;;;;;38.07;26.73;;;23.50;78.80;;;;;;5074723;28;20534;-77
2023/06/22 02:45:49;;;;;;;41.03;30.10;;;23.20;79.20;;;;;;5079076;28;20449;-77
2023/06/22 02:48:17;;;;;;;40.10;28.30;;;23.10;80.50;;;;;;5073489;28;20445;-78
2023/06/22 02:50:45;;;;;;;36.93;26.80;;;23.10;80.00;;;;;;5064448;28;21025;-76
2023/06/22 02:53:14;;;;;;;36.90;26.20;;;23.00;81.10;;;;;;5073693;28;20533;-78
2023/06/22 02:55:42;;;;;;;80.80;40.33;;;23.10;82.80;;;;;;5075162;28;20481;-78
2023/06/22 02:58:10;;;;;;;53.67;36.37;;;23.50;80.60;;;;;;5070294;28;20518;-79
2023/06/22 03:00:39;;;;;;;40.37;29.00;;;23.60;78.00;;;;;;5074828;28;20458;-78
2023/06/22 03:03:07;;;;;;;38.43;27.33;;;23.70;77.90;;;;;;5075803;28;20430;-78
2023/06/22 03:05:36;;;;;;;35.80;26.87;;;23.70;77.30;;;;;;5070479;28;20430;-77
2023/06/22 03:08:04;;;;;;;43.60;29.03;;;23.70;76.90;;;;;;5073918;28;20495;-78
2023/06/22 03:10:34;;;;;;;39.10;26.03;;;23.40;77.80;;;;;;5073845;28;20446;-77
2023/06/22 03:13:02;;;;;;;38.20;26.67;;;23.40;79.10;;;;;;5064612;28;20501;-78
2023/06/22 03:15:31;;;;;;;34.57;25.77;;;23.70;77.50;;;;;;5067630;28;20458;-77
2023/06/22 03:17:59;;;;;;;33.53;24.43;;;23.60;77.20;;;;;;5075603;28;20496;-78
2023/06/22 03:20:33;;;;;;;33.57;24.20;;;23.40;78.20;;;;;;5065867;28;20441;-78
2023/06/22 03:23:01;;;;;;;34.07;24.23;;;23.20;79.10;;;;;;5068588;28;20983;-77
2023/06/22 03:25:29;;;;;;;29.97;22.63;;;23.00;80.60;;;;;;5073119;28;20905;-77
2023/06/22 03:27:59;;;;;;;38.37;27.27;;;22.90;80.20;;;;;;5081218;28;20479;-77
2023/06/22 03:30:28;;;;;;;39.60;28.00;;;22.80;82.20;;;;;;5062183;28;20470;-78
2023/06/22 03:32:56;;;;;;;40.90;27.87;;;23.00;81.70;;;;;;5070403;28;20524;-77
2023/06/22 03:35:24;;;;;;;35.07;25.47;;;23.00;80.40;;;;;;5082129;28;20556;-78
2023/06/22 03:37:52;;;;;;;32.47;23.00;;;22.90;80.30;;;;;;5076041;28;20451;-78
2023/06/22 03:40:20;;;;;;;34.57;24.67;;;22.80;82.50;;;;;;5073373;28;20980;-77
2023/06/22 03:42:48;;;;;;;35.33;24.87;;;22.70;82.60;;;;;;5078178;28;20474;-77
2023/06/22 03:45:18;;;;;;;35.00;25.00;;;22.90;84.60;;;;;;5075016;28;20481;-78
2023/06/22 03:47:46;;;;;;;30.90;23.13;;;23.10;80.90;;;;;;5071349;28;20433;-78
2023/06/22 03:50:14;;;;;;;32.20;23.40;;;23.20;83.50;;;;;;5073328;28;20433;-77
2023/06/22 03:52:42;;;;;;;32.10;23.67;;;23.40;80.30;;;;;;5074063;28;20471;-77
2023/06/22 03:55:11;;;;;;;28.10;21.27;;;23.60;79.20;;;;;;5072324;28;20483;-77
2023/06/22 03:57:39;;;;;;;32.30;25.57;;;23.80;78.70;;;;;;5081192;28;20446;-78
2023/06/22 04:00:10;;;;;;;34.13;23.80;;;23.80;76.90;;;;;;5073098;28;20540;-77
2023/06/22 04:02:39;;;;;;;33.07;23.57;;;23.70;78.10;;;;;;5073059;28;20511;-77
2023/06/22 04:05:09;;;;;;;32.60;23.70;;;23.80;77.20;;;;;;5063050;28;20449;-78
2023/06/22 04:07:37;;;;;;;33.60;25.23;;;23.90;77.30;;;;;;5069092;28;20507;-77
2023/06/22 04:10:07;;;;;;;33.20;25.57;;;23.70;76.80;;;;;;5073047;28;20472;-78
2023/06/22 04:12:45;;;;;;;33.70;25.80;;;23.80;76.70;;;;;;5066459;28;20435;-78
2023/06/22 04:15:13;;;;;;;32.10;24.13;;;23.80;76.20;;;;;;5072115;28;20576;-78
2023/06/22 04:17:42;;;;;;;30.43;22.93;;;23.90;76.80;;;;;;5080608;28;20447;-78
2023/06/22 04:20:11;;;;;;;30.37;23.83;;;23.90;77.00;;;;;;5072357;28;20478;-78
2023/06/22 04:22:39;;;;;;;34.13;24.33;;;24.00;75.40;;;;;;5066182;28;20570;-79
2023/06/22 04:25:08;;;;;;;27.83;21.07;;;24.10;74.90;;;;;;5072942;28;20488;-79
2023/06/22 04:27:37;;;;;;;29.73;21.43;;;24.10;75.20;;;;;;5077638;28;20441;-79
2023/06/22 04:30:06;;;;;;;30.50;20.90;;;24.20;74.10;;;;;;5084058;28;20985;-79
2023/06/22 04:32:36;;;;;;;25.50;18.77;;;24.20;74.40;;;;;;5073375;28;20455;-79
2023/06/22 04:35:06;;;;;;;23.37;16.30;;;24.20;74.90;;;;;;5081760;28;20472;-78
2023/06/22 04:37:34;;;;;;;24.17;17.57;;;24.50;74.90;;;;;;5063748;28;20468;-79
2023/06/22 04:40:04;;;;;;;24.53;18.67;;;24.50;74.40;;;;;;5069696;28;20480;-79
2023/06/22 04:42:34;;;;;;;30.07;20.90;;;24.60;72.70;;;;;;5079865;28;20420;-78
2023/06/22 04:45:03;;;;;;;28.30;21.30;;;24.50;72.20;;;;;;5071045;28;20524;-78
2023/06/22 04:47:31;;;;;;;25.40;19.40;;;24.30;74.00;;;;;;5063755;28;20511;-78
2023/06/22 04:49:59;;;;;;;32.87;21.77;;;24.40;74.70;;;;;;5071367;28;20441;-78
2023/06/22 04:52:28;;;;;;;37.13;22.40;;;24.60;73.50;;;;;;5075739;28;20524;-78
2023/06/22 04:54:59;;;;;;;30.37;22.90;;;24.70;72.60;;;;;;5070757;28;20478;-77
2023/06/22 04:57:32;;;;;;;28.03;22.53;;;24.70;72.00;;;;;;5071587;28;20430;-77
2023/06/22 05:00:11;;;;;;;35.53;25.33;;;24.60;73.40;;;;;;5075287;28;20422;-78
2023/06/22 05:02:39;;;;;;;35.63;25.20;;;24.30;72.80;;;;;;5064891;28;20424;-77
2023/06/22 05:05:08;;;;;;;33.33;23.47;;;24.30;74.00;;;;;;5077931;28;21131;-77
2023/06/22 05:07:38;;;;;;;33.90;23.67;;;24.30;73.80;;;;;;5074248;28;20445;-76
2023/06/22 05:10:07;;;;;;;29.70;22.73;;;24.20;75.20;;;;;;5074186;28;20437;-77
2023/06/22 05:12:35;;;;;;;36.33;27.57;;;24.30;76.30;;;;;;5068080;28;20460;-77
2023/06/22 05:15:03;;;;;;;41.10;30.60;;;24.40;74.70;;;;;;5071005;28;20504;-78
2023/06/22 05:17:31;;;;;;;34.80;22.93;;;24.60;73.00;;;;;;5061231;28;20519;-78
2023/06/22 05:19:59;;;;;;;30.10;22.07;;;24.50;73.00;;;;;;5072216;28;20863;-78
2023/06/22 05:22:28;;;;;;;32.17;21.50;;;24.70;73.00;;;;;;5072552;28;20416;-78
2023/06/22 05:24:57;;;;;;;29.37;22.37;;;24.70;72.70;;;;;;5066673;28;20516;-77
2023/06/22 05:27:25;;;;;;;26.73;20.53;;;24.80;72.40;;;;;;5074773;28;20556;-78
2023/06/22 05:29:53;;;;;;;26.30;19.87;;;24.80;71.80;;;;;;5072803;28;20507;-77
2023/06/22 05:32:21;;;;;;;27.60;21.93;;;24.80;71.20;;;;;;5077910;28;20453;-79
2023/06/22 05:34:50;;;;;;;34.33;22.00;;;24.60;71.70;;;;;;5077096;28;20491;-78
2023/06/22 05:37:18;;;;;;;28.30;20.47;;;24.70;71.90;;;;;;5069799;28;20412;-77
2023/06/22 05:39:46;;;;;;;29.00;21.93;;;24.70;71.60;;;;;;5072192;28;20466;-77
2023/06/22 05:42:16;;;;;;;28.57;19.53;;;24.80;71.30;;;;;;5070693;28;20458;-77
2023/06/22 05:44:44;;;;;;;29.00;21.30;;;24.70;71.00;;;;;;5073729;28;20458;-76
2023/06/22 05:47:12;;;;;;;24.00;18.60;;;24.60;71.10;;;;;;5061192;28;20482;-77
2023/06/22 05:49:40;;;;;;;25.47;20.03;;;24.80;72.00;;;;;;5070548;28;20491;-77
2023/06/22 05:52:09;;;;;;;24.90;18.30;;;25.00;70.60;;;;;;5079296;28;20542;-78
2023/06/22 05:54:38;;;;;;;27.40;20.17;;;25.00;70.90;;;;;;5077021;28;20468;-78
2023/06/22 05:57:07;;;;;;;27.00;18.93;;;25.10;69.50;;;;;;5074862;28;20495;-78
2023/06/22 05:59:36;;;;;;;24.90;16.87;;;25.10;70.20;;;;;;5074945;28;20420;-78
2023/06/22 06:02:05;;;;;;;21.20;14.87;;;25.20;70.00;;;;;;5069962;28;20503;-78
2023/06/22 06:04:34;;;;;;;20.40;16.40;;;25.30;68.90;;;;;;5065076;28;20453;-78
2023/06/22 06:07:02;;;;;;;22.77;15.27;;;25.40;67.10;;;;;;5063584;28;20456;-78
2023/06/22 06:09:30;;;;;;;16.57;12.67;;;25.40;67.20;;;;;;5071282;28;20441;-78
2023/06/22 06:11:58;;;;;;;14.23;11.67;;;25.50;66.50;;;;;;5071771;28;20426;-78
2023/06/22 06:14:26;;;;;;;12.40;9.73;;;25.50;66.00;;;;;;5071890;28;20469;-78
2023/06/22 06:16:56;;;;;;;12.30;10.30;;;25.60;65.10;;;;;;5070500;28;20487;-79
2023/06/22 06:19:24;;;;;;;15.13;9.20;;;25.60;64.00;;;;;;5066843;28;20582;-78
2023/06/22 06:21:52;;;;;;;11.87;8.80;;;25.80;63.40;;;;;;5070913;28;20437;-79
2023/06/22 06:24:20;;;;;;;11.00;9.00;;;25.90;62.10;;;;;;5072343;28;20462;-78
2023/06/22 06:26:48;;;;;;;10.70;8.40;;;25.90;61.10;;;;;;5074978;28;20448;-78
2023/06/22 06:29:17;;;;;;;9.97;8.43;;;26.00;60.20;;;;;;5068961;28;20492;-78
2023/06/22 06:31:45;;;;;;;10.93;8.93;;;26.00;60.10;;;;;;5076454;28;20424;-78
2023/06/22 06:34:14;;;;;;;11.50;8.73;;;26.10;60.50;;;;;;5075357;28;20469;-79
2023/06/22 06:36:44;;;;;;;9.90;8.03;;;26.20;60.10;;;;;;5065267;28;21046;-78
2023/06/22 06:39:12;;;;;;;9.37;7.80;;;26.20;59.90;;;;;;5073600;28;20432;-78
2023/06/22 06:41:39;;;;;;;9.07;8.17;;;26.30;60.40;;;;;;5077887;28;20421;-78
2023/06/22 06:44:07;;;;;;;11.60;8.50;;;26.30;60.60;;;;;;5078549;28;20474;-78
2023/06/22 06:46:35;;;;;;;18.67;12.90;;;26.40;59.80;;;;;;5068518;28;20447;-78
2023/06/22 06:49:04;;;;;;;15.30;11.60;;;26.40;60.10;;;;;;5070129;28;20446;-78
2023/06/22 06:51:33;;;;;;;15.07;12.40;;;26.60;60.00;;;;;;5076172;28;20460;-78
2023/06/22 06:54:03;;;;;;;9.73;7.90;;;26.70;59.80;;;;;;5072362;28;20557;-78
2023/06/22 06:56:32;;;;;;;10.90;9.63;;;26.80;59.20;;;;;;5060837;28;20471;-78
2023/06/22 06:59:01;;;;;;;14.93;8.60;;;26.80;59.00;;;;;;5077380;28;20449;-78
2023/06/22 07:01:33;;;;;;;8.30;7.07;;;26.90;59.00;;;;;;5076288;28;20918;-78
2023/06/22 07:04:01;;;;;;;10.73;8.13;;;26.90;58.90;;;;;;5084695;28;20431;-78
2023/06/22 07:06:32;;;;;;;9.20;8.20;;;27.00;58.50;;;;;;5078476;28;20505;-78
2023/06/22 07:09:03;;;;;;;9.67;7.37;;;27.00;58.30;;;;;;5067086;28;20415;-78
2023/06/22 07:11:31;;;;;;;8.67;7.27;;;27.10;58.30;;;;;;5074505;28;20445;-78
2023/06/22 07:14:00;;;;;;;9.20;7.30;;;27.00;57.60;;;;;;5071018;28;20512;-78
2023/06/22 07:16:29;;;;;;;9.97;7.37;;;27.20;56.90;;;;;;5055904;28;20470;-79
2023/06/22 07:18:57;;;;;;;8.87;6.30;;;27.20;56.40;;;;;;5061397;28;20409;-78
2023/06/22 07:21:25;;;;;;;11.30;7.90;;;27.20;56.50;;;;;;5079491;28;20523;-78
2023/06/22 07:23:54;;;;;;;11.77;7.23;;;27.10;56.50;;;;;;5060608;28;20437;-78
2023/06/22 07:26:23;;;;;;;7.20;6.50;;;27.40;56.00;;;;;;5064752;28;20413;-78
2023/06/22 07:28:51;;;;;;;8.60;7.70;;;27.30;55.60;;;;;;5068834;28;20518;-78
2023/06/22 07:31:19;;;;;;;10.30;7.47;;;27.00;55.00;;;;;;5064725;28;20561;-78
2023/06/22 07:33:57;;;;;;;7.30;5.97;;;27.00;55.40;;;;;;5072945;28;20959;-79
2023/06/22 07:36:25;;;;;;;11.90;10.40;;;27.30;55.30;;;;;;5065842;28;20505;-77
2023/06/22 07:38:53;;;;;;;8.57;5.57;;;27.50;54.70;;;;;;5061354;28;20982;-77
2023/06/22 07:41:23;;;;;;;9.00;6.33;;;27.70;54.80;;;;;;5082694;28;20941;-78
2023/06/22 07:43:51;;;;;;;8.23;5.40;;;27.80;54.30;;;;;;5070234;28;20881;-78
2023/06/22 07:46:20;;;;;;;5.83;4.90;;;27.90;54.20;;;;;;5062757;28;20457;-78
2023/06/22 07:48:51;;;;;;;5.43;4.80;;;28.00;53.70;;;;;;5059305;28;20444;-77
2023/06/22 07:51:23;;;;;;;7.37;5.23;;;27.90;53.60;;;;;;5072357;28;20445;-78
2023/06/22 07:53:51;;;;;;;6.40;5.53;;;28.10;53.70;;;;;;5063949;28;20433;-78
2023/06/22 07:56:20;;;;;;;4.53;4.13;;;28.30;53.20;;;;;;5066953;28;20469;-77
2023/06/22 07:58:49;;;;;;;7.53;4.87;;;28.30;53.20;;;;;;5076310;28;20412;-78
2023/06/22 08:01:20;;;;;;;5.47;4.93;;;28.40;53.40;;;;;;5065361;28;20454;-77
2023/06/22 08:03:49;;;;;;;6.83;4.03;;;28.40;53.00;;;;;;5058705;28;20481;-80
2023/06/22 08:06:17;;;;;;;6.20;5.60;;;28.40;53.20;;;;;;5069512;28;20434;-79
2023/06/22 08:08:47;;;;;;;4.93;4.43;;;28.30;53.20;;;;;;5074504;28;20455;-79
2023/06/22 08:11:16;;;;;;;7.50;5.77;;;28.40;53.10;;;;;;5056421;28;20469;-79
2023/06/22 08:13:44;;;;;;;9.87;4.30;;;28.50;52.70;;;;;;5057477;28;20501;-80
2023/06/22 08:16:13;;;;;;;6.00;5.47;;;28.50;52.30;;;;;;5066012;28;20505;-78
2023/06/22 08:18:41;;;;;;;5.83;5.37;;;28.40;52.20;;;;;;5076122;28;20446;-77
2023/06/22 08:21:11;;;;;;;7.67;5.87;;;28.50;52.30;;;;;;5063474;28;20492;-78
2023/06/22 08:23:39;;;;;;;9.07;5.93;;;28.50;52.00;;;;;;5062617;28;20519;-78
2023/06/22 08:26:07;;;;;;;7.63;5.93;;;28.20;52.50;;;;;;5069174;28;20438;-78
2023/06/22 08:28:36;;;;;;;7.50;5.10;;;28.40;52.50;;;;;;5063173;28;20424;-81
2023/06/22 08:31:04;;;;;;;8.03;5.97;;;28.60;52.50;;;;;;5058247;28;20449;-77
2023/06/22 08:33:34;;;;;;;4.73;3.90;;;28.40;53.10;;;;;;5068336;28;20465;-79
2023/06/22 08:36:08;;;;;;;4.10;3.70;;;28.80;52.70;;;;;;5069073;28;20477;-79
2023/06/22 08:38:37;;;;;;;15.53;3.63;;;29.20;52.00;;;;;;5065555;28;20470;-80
2023/06/22 08:41:07;;;;;;;9.27;3.37;;;29.50;51.40;;;;;;5060762;28;20545;-78
2023/06/22 08:43:36;;;;;;;4.73;3.50;;;29.70;50.90;;;;;;5055315;28;20469;-79
2023/06/22 08:46:04;;;;;;;3.73;2.77;;;29.90;50.70;;;;;;5061520;28;20446;-79
2023/06/22 08:48:33;;;;;;;4.93;3.30;;;30.10;50.50;;;;;;5054583;28;20476;-78
2023/06/22 08:51:02;;;;;;;4.50;3.47;;;30.20;50.40;;;;;;5055138;28;20468;-79
2023/06/22 08:53:30;;;;;;;3.33;2.97;;;30.30;50.20;;;;;;5057069;28;20819;-79
2023/06/22 08:55:58;;;;;;;2.83;2.63;;;30.30;49.90;;;;;;5070558;28;20499;-78
2023/06/22 08:58:27;;;;;;;3.20;3.00;;;30.50;49.80;;;;;;5060584;28;20425;-79
2023/06/22 09:00:55;;;;;;;2.80;2.70;;;30.50;49.60;;;;;;5054128;28;20451;-80
2023/06/22 09:03:26;;;;;;;4.17;3.60;;;30.60;50.10;;;;;;5059457;28;20466;-79
2023/06/22 09:05:58;;;;;;;6.80;5.17;;;30.70;49.30;;;;;;5078987;28;20536;-80
2023/06/22 09:08:26;;;;;;;5.07;4.57;;;30.80;49.20;;;;;;5056532;28;20951;-79
2023/06/22 09:10:54;;;;;;;7.27;4.40;;;30.90;49.20;;;;;;5063179;28;20449;-79
2023/06/22 09:13:23;;;;;;;5.73;4.53;;;31.00;49.10;;;;;;5066562;28;20500;-80
2023/06/22 09:15:52;;;;;;;5.97;4.37;;;31.00;48.90;;;;;;5056309;28;20459;-79
2023/06/22 09:18:20;;;;;;;5.13;3.90;;;31.20;49.10;;;;;;5067590;28;20472;-79
2023/06/22 09:20:49;;;;;;;4.10;3.60;;;31.20;48.80;;;;;;5060986;28;20485;-77
2023/06/22 09:23:19;;;;;;;3.57;3.27;;;31.30;48.50;;;;;;5054121;28;20496;-79
2023/06/22 09:25:47;;;;;;;3.47;3.27;;;31.30;48.40;;;;;;5067211;28;20437;-79
2023/06/22 09:28:15;;;;;;;3.30;3.00;;;31.40;48.10;;;;;;5064449;28;20434;-80
2023/06/22 09:30:44;;;;;;;3.40;3.10;;;31.50;48.50;;;;;;5068342;28;20430;-80
2023/06/22 09:33:12;;;;;;;3.40;3.20;;;31.60;48.20;;;;;;5057185;28;20485;-80
2023/06/22 09:35:40;;;;;;;3.50;2.60;;;31.60;48.20;;;;;;5058458;28;20450;-79
2023/06/22 09:38:08;;;;;;;3.10;2.90;;;31.70;47.90;;;;;;5064885;28;20470;-78
2023/06/22 09:40:39;;;;;;;3.97;3.67;;;31.80;48.10;;;;;;5065142;28;20442;-79
2023/06/22 09:43:10;;;;;;;6.97;4.87;;;31.90;47.90;;;;;;5058332;28;20469;-79
2023/06/22 09:45:38;;;;;;;3.67;3.47;;;31.90;47.90;;;;;;5057260;28;20425;-79
2023/06/22 09:48:09;;;;;;;4.00;3.80;;;32.00;47.50;;;;;;5055194;28;20447;-80
2023/06/22 09:50:38;;;;;;;4.33;4.10;;;32.10;47.60;;;;;;5060666;28;20449;-79
2023/06/22 09:53:06;;;;;;;4.03;3.83;;;32.10;47.40;;;;;;5060241;28;20511;-80
2023/06/22 09:55:34;;;;;;;3.70;3.40;;;32.20;47.30;;;;;;5069408;28;20517;-80
2023/06/22 09:58:04;;;;;;;4.77;3.40;;;32.20;47.00;;;;;;5056702;28;20466;-80
2023/06/22 10:00:32;;;;;;;3.60;3.30;;;32.10;47.30;;;;;;5057872;28;20958;-80
2023/06/22 10:03:00;;;;;;;3.17;2.97;;;32.20;46.80;;;;;;5058393;28;20901;-80
2023/06/22 10:05:29;;;;;;;4.13;3.83;;;32.20;46.80;;;;;;5063507;28;20541;-79
2023/06/22 10:07:57;;;;;;;3.67;3.47;;;32.30;47.00;;;;;;5060321;28;20431;-80
2023/06/22 10:10:25;;;;;;;3.43;3.23;;;32.50;46.70;;;;;;5066950;28;20563;-80
2023/06/22 10:12:57;;;;;;;3.63;3.43;;;32.50;46.70;;;;;;5064314;28;20453;-80
2023/06/22 10:15:28;;;;;;;4.83;3.67;;;32.60;46.50;;;;;;5069226;28;20457;-79
2023/06/22 10:17:57;;;;;;;3.77;3.47;;;32.60;46.30;;;;;;5061134;28;20466;-80
2023/06/22 10:20:26;;;;;;;5.53;3.57;;;32.70;46.40;;;;;;5074154;28;20431;-80
2023/06/22 10:22:57;;;;;;;3.83;3.50;;;32.70;46.10;;;;;;5064794;28;20434;-80
2023/06/22 10:25:27;;;;;;;3.37;3.27;;;32.70;46.30;;;;;;5065291;28;20505;-80
2023/06/22 10:27:57;;;;;;;3.50;3.20;;;32.70;46.10;;;;;;5061556;28;20454;-80
2023/06/22 10:30:26;;;;;;;3.87;3.57;;;32.80;46.00;;;;;;5058938;28;20447;-80
2023/06/22 10:32:54;;;;;;;3.80;3.50;;;32.90;45.80;;;;;;5079134;28;20526;-79
2023/06/22 10:35:22;;;;;;;4.40;3.50;;;32.80;46.10;;;;;;5058963;28;20496;-80
2023/06/22 10:37:51;;;;;;;3.37;3.20;;;32.80;45.90;;;;;;5060210;28;20490;-81
2023/06/22 10:40:22;;;;;;;3.13;3.03;;;32.90;45.80;;;;;;5060627;28;20500;-81
2023/06/22 10:42:50;;;;;;;3.30;3.20;;;33.00;45.70;;;;;;5062650;28;20450;-79
2023/06/22 10:45:18;;;;;;;4.33;3.20;;;33.10;45.60;;;;;;5065866;28;20906;-79
2023/06/22 10:47:48;;;;;;;3.50;3.30;;;33.10;45.40;;;;;;5060244;28;20541;-79
2023/06/22 10:50:17;;;;;;;3.03;2.93;;;33.20;45.50;;;;;;5070915;28;20443;-79
2023/06/22 10:52:45;;;;;;;4.10;2.97;;;33.40;45.50;;;;;;5084320;28;20441;-80
2023/06/22 10:55:13;;;;;;;3.37;3.17;;;33.40;45.10;;;;;;5073405;28;20466;-79
2023/06/22 10:57:44;;;;;;;5.00;3.10;;;33.50;45.00;;;;;;5078727;28;20462;-77
2023/06/22 11:00:13;;;;;;;3.40;3.20;;;33.60;44.60;;;;;;5071212;28;20449;-77
2023/06/22 11:02:42;;;;;;;5.37;3.17;;;33.50;44.90;;;;;;5068324;28;20480;-78
2023/06/22 11:05:11;;;;;;;3.27;3.10;;;33.60;44.60;;;;;;5076303;28;20476;-79
2023/06/22 11:07:42;;;;;;;9.97;3.50;;;33.60;44.50;;;;;;5072893;28;20502;-79
2023/06/22 11:10:11;;;;;;;3.90;3.60;;;33.60;44.40;;;;;;5067701;28;20949;-80
2023/06/22 11:12:39;;;;;;;3.90;3.60;;;33.80;44.80;;;;;;5069814;28;20507;-81
2023/06/22 11:15:09;;;;;;;3.40;3.23;;;33.80;44.00;;;;;;5072892;28;20472;-80
2023/06/22 11:17:37;;;;;;;4.10;3.80;;;33.90;44.20;;;;;;5069917;28;20480;-79
2023/06/22 11:20:10;;;;;;;5.67;3.70;;;34.00;44.10;;;;;;5074151;28;20500;-80
2023/06/22 11:22:43;;;;;;;3.77;3.57;;;34.00;43.70;;;;;;5067342;28;20444;-79
2023/06/22 11:25:12;;;;;;;4.77;4.37;;;34.00;43.90;;;;;;5079112;28;20462;-78
2023/06/22 11:27:40;;;;;;;4.07;3.77;;;34.10;43.60;;;;;;5076881;28;20450;-79
2023/06/22 11:30:09;;;;;;;4.37;4.07;;;34.20;43.40;;;;;;5065588;28;20460;-81
2023/06/22 11:32:48;;;;;;;4.27;3.93;;;34.30;43.30;;;;;;5067026;28;20542;-81
2023/06/22 11:35:17;;;;;;;4.23;4.03;;;34.30;43.30;;;;;;5067995;28;20867;-80
2023/06/22 11:37:46;;;;;;;5.30;4.90;;;34.30;43.10;;;;;;5073071;28;20469;-79
2023/06/22 11:40:14;;;;;;;4.07;3.83;;;34.40;43.40;;;;;;5076136;28;20496;-80
2023/06/22 11:42:43;;;;;;;5.40;4.60;;;34.40;43.30;;;;;;5071705;28;20480;-80
2023/06/22 11:45:11;;;;;;;4.40;4.00;;;34.50;43.30;;;;;;5063075;28;20477;-80
2023/06/22 11:47:39;;;;;;;8.03;4.40;;;34.60;42.90;;;;;;5067865;28;20470;-80
2023/06/22 11:50:08;;;;;;;4.43;4.13;;;34.60;43.70;;;;;;5075819;28;20436;-80
2023/06/22 11:52:37;;;;;;;4.40;4.10;;;34.60;43.00;;;;;;5079108;28;20444;-79
2023/06/22 11:55:07;;;;;;;4.10;3.90;;;34.70;42.90;;;;;;5076053;28;20459;-81
2023/06/22 11:57:37;;;;;;;4.37;4.07;;;34.70;42.50;;;;;;5063141;28;20462;-82
2023/06/22 12:00:16;;;;;;;3.67;3.43;;;34.50;43.20;;;;;;5077005;28;20492;-80
2023/06/22 12:02:44;;;;;;;4.47;4.17;;;34.40;42.90;;;;;;5077449;28;20449;-80
2023/06/22 12:05:13;;;;;;;4.00;3.80;;;34.50;43.00;;;;;;5080337;28;20464;-81
2023/06/22 12:07:41;;;;;;;4.57;4.00;;;34.50;42.50;;;;;;5088972;28;20460;-80
2023/06/22 12:10:11;;;;;;;3.63;3.50;;;34.40;42.50;;;;;;5083354;28;20536;-81
2023/06/22 12:12:40;;;;;;;5.60;4.60;;;34.40;42.60;;;;;;5074104;28;20500;-81
2023/06/22 12:15:08;;;;;;;4.60;4.30;;;34.40;42.30;;;;;;5084540;28;20445;-80
2023/06/22 12:17:36;;;;;;;4.80;4.50;;;34.40;42.90;;;;;;5077859;28;20451;-81
2023/06/22 12:20:05;;;;;;;5.10;4.80;;;34.40;42.90;;;;;;5073857;28;20514;-79
2023/06/22 12:22:33;;;;;;;5.03;4.73;;;34.30;42.80;;;;;;5071683;28;20496;-79
2023/06/22 12:25:02;;;;;;;4.27;4.07;;;34.30;42.40;;;;;;5068696;28;20496;-79
2023/06/22 12:27:31;;;;;;;5.70;4.60;;;34.30;42.50;;;;;;5074809;28;20476;-79
2023/06/22 12:29:59;;;;;;;5.07;4.60;;;34.20;42.40;;;;;;5067745;28;20486;-80
2023/06/22 12:32:28;;;;;;;5.17;4.70;;;34.20;42.60;;;;;;5077129;28;20528;-79
2023/06/22 12:34:56;;;;;;;5.23;4.93;;;34.20;42.60;;;;;;5073207;28;20457;-79
2023/06/22 12:37:24;;;;;;;5.27;4.87;;;34.20;42.40;;;;;;5072824;28;20509;-83
2023/06/22 12:39:52;;;;;;;3.90;3.70;;;34.00;42.80;;;;;;5067854;28;20469;-77
2023/06/22 12:42:20;;;;;;;5.07;4.70;;;33.50;42.00;;;;;;5060782;28;20442;-78
2023/06/22 12:44:50;;;;;;;4.70;4.40;;;33.30;42.30;;;;;;5068671;28;20485;-78